sensor_id;sensor_type;location;lat;lon;timestamp;P1;durP1;ratioP1;P2;durP2;ratioP2
38940;SDS011;43236;47.208;7.518;2024-03-06T00:01:47;2.38;;;1.38;;
38940;SDS011;43236;47.208;7.518;2024-03-06T00:04:34;1.25;;;1.15;;
38940;SDS011;43236;47.208;7.518;2024-03-06T00:07:21;1.42;;;1.33;;
38940;SDS011;43236;47.208;7.518;2024-03-06T00:10:09;2.03;;;1.80;;
38940;SDS011;43236;47.208;7.518;2024-03-06T00:12:56;2.80;;;1.52;;
38940;SDS011;43236;47.208;7.518;2024-03-06T00:15:44;1.38;;;1.27;;
38940;SDS011;43236;47.208;7.518;2024-03-06T00:18:31;1.90;;;1.35;;
38940;SDS011;43236;47.208;7.518;2024-03-06T00:21:18;1.98;;;1.77;;
38940;SDS011;43236;47.208;7.518;2024-03-06T00:24:05;1.60;;;1.48;;
38940;SDS011;43236;47.208;7.518;2024-03-06T00:26:53;1.80;;;1.70;;
38940;SDS011;43236;47.208;7.518;2024-03-06T00:29:40;1.70;;;1.60;;
38940;SDS011;43236;47.208;7.518;2024-03-06T00:32:28;1.45;;;1.35;;
38940;SDS011;43236;47.208;7.518;2024-03-06T00:35:15;1.60;;;1.30;;
38940;SDS011;43236;47.208;7.518;2024-03-06T00:38:03;2.85;;;1.60;;
38940;SDS011;43236;47.208;7.518;2024-03-06T00:40:51;2.47;;;1.83;;
38940;SDS011;43236;47.208;7.518;2024-03-06T00:43:38;1.77;;;1.52;;
38940;SDS011;43236;47.208;7.518;2024-03-06T00:46:25;2.03;;;1.75;;
38940;SDS011;43236;47.208;7.518;2024-03-06T00:49:14;2.25;;;2.00;;
38940;SDS011;43236;47.208;7.518;2024-03-06T00:52:01;2.53;;;1.77;;
38940;SDS011;43236;47.208;7.518;2024-03-06T00:54:49;1.95;;;1.83;;
38940;SDS011;43236;47.208;7.518;2024-03-06T00:57:36;1.85;;;1.75;;
38940;SDS011;43236;47.208;7.518;2024-03-06T01:00:23;2.13;;;1.75;;
38940;SDS011;43236;47.208;7.518;2024-03-06T01:03:10;2.00;;;1.60;;
38940;SDS011;43236;47.208;7.518;2024-03-06T01:05:58;1.50;;;1.40;;
38940;SDS011;43236;47.208;7.518;2024-03-06T01:08:45;1.73;;;1.50;;
38940;SDS011;43236;47.208;7.518;2024-03-06T01:11:33;1.63;;;1.52;;
38940;SDS011;43236;47.208;7.518;2024-03-06T01:14:20;1.48;;;1.38;;
38940;SDS011;43236;47.208;7.518;2024-03-06T01:17:07;1.35;;;1.25;;
38940;SDS011;43236;47.208;7.518;2024-03-06T01:19:54;1.40;;;1.30;;
38940;SDS011;43236;47.208;7.518;2024-03-06T01:22:42;1.95;;;1.42;;
38940;SDS011;43236;47.208;7.518;2024-03-06T01:25:29;1.45;;;1.35;;
38940;SDS011;43236;47.208;7.518;2024-03-06T01:28:16;2.63;;;1.73;;
38940;SDS011;43236;47.208;7.518;2024-03-06T01:31:03;1.50;;;1.40;;
38940;SDS011;43236;47.208;7.518;2024-03-06T01:33:51;2.78;;;1.83;;
38940;SDS011;43236;47.208;7.518;2024-03-06T01:36:38;1.63;;;1.40;;
38940;SDS011;43236;47.208;7.518;2024-03-06T01:39:26;2.90;;;1.85;;
38940;SDS011;43236;47.208;7.518;2024-03-06T01:42:16;3.80;;;1.48;;
38940;SDS011;43236;47.208;7.518;2024-03-06T01:45:03;2.33;;;1.60;;
38940;SDS011;43236;47.208;7.518;2024-03-06T01:47:52;1.40;;;1.30;;
38940;SDS011;43236;47.208;7.518;2024-03-06T01:50:39;1.60;;;1.40;;
38940;SDS011;43236;47.208;7.518;2024-03-06T01:53:27;3.30;;;1.60;;
38940;SDS011;43236;47.208;7.518;2024-03-06T01:56:19;1.77;;;1.60;;
38940;SDS011;43236;47.208;7.518;2024-03-06T01:59:06;2.45;;;1.63;;
38940;SDS011;43236;47.208;7.518;2024-03-06T02:01:53;1.70;;;1.58;;
38940;SDS011;43236;47.208;7.518;2024-03-06T02:04:41;2.00;;;1.55;;
38940;SDS011;43236;47.208;7.518;2024-03-06T02:07:28;2.50;;;1.42;;
38940;SDS011;43236;47.208;7.518;2024-03-06T02:10:17;1.73;;;1.42;;
38940;SDS011;43236;47.208;7.518;2024-03-06T02:13:06;1.40;;;1.30;;
38940;SDS011;43236;47.208;7.518;2024-03-06T02:15:53;1.50;;;1.35;;
38940;SDS011;43236;47.208;7.518;2024-03-06T02:18:50;1.60;;;1.50;;
38940;SDS011;43236;47.208;7.518;2024-03-06T02:21:39;1.50;;;1.40;;
38940;SDS011;43236;47.208;7.518;2024-03-06T02:24:26;1.45;;;1.30;;
38940;SDS011;43236;47.208;7.518;2024-03-06T02:27:14;1.20;;;1.10;;
38940;SDS011;43236;47.208;7.518;2024-03-06T02:30:02;1.35;;;1.25;;
38940;SDS011;43236;47.208;7.518;2024-03-06T02:32:49;2.45;;;1.67;;
38940;SDS011;43236;47.208;7.518;2024-03-06T02:35:36;1.35;;;1.25;;
38940;SDS011;43236;47.208;7.518;2024-03-06T02:38:26;1.88;;;1.50;;
38940;SDS011;43236;47.208;7.518;2024-03-06T02:41:13;2.20;;;1.23;;
38940;SDS011;43236;47.208;7.518;2024-03-06T02:44:01;1.42;;;1.33;;
38940;SDS011;43236;47.208;7.518;2024-03-06T02:46:48;2.38;;;1.63;;
38940;SDS011;43236;47.208;7.518;2024-03-06T02:49:35;2.05;;;1.85;;
38940;SDS011;43236;47.208;7.518;2024-03-06T02:52:22;2.45;;;1.70;;
38940;SDS011;43236;47.208;7.518;2024-03-06T02:55:11;2.80;;;2.10;;
38940;SDS011;43236;47.208;7.518;2024-03-06T02:58:00;1.75;;;1.65;;
38940;SDS011;43236;47.208;7.518;2024-03-06T03:00:48;3.72;;;1.60;;
38940;SDS011;43236;47.208;7.518;2024-03-06T03:03:35;2.42;;;1.80;;
38940;SDS011;43236;47.208;7.518;2024-03-06T03:06:22;2.20;;;2.00;;
38940;SDS011;43236;47.208;7.518;2024-03-06T03:09:10;2.72;;;1.60;;
38940;SDS011;43236;47.208;7.518;2024-03-06T03:11:59;1.98;;;1.40;;
38940;SDS011;43236;47.208;7.518;2024-03-06T03:14:46;2.97;;;2.05;;
38940;SDS011;43236;47.208;7.518;2024-03-06T03:17:33;1.75;;;1.60;;
38940;SDS011;43236;47.208;7.518;2024-03-06T03:20:20;1.90;;;1.73;;
38940;SDS011;43236;47.208;7.518;2024-03-06T03:23:07;1.52;;;1.42;;
38940;SDS011;43236;47.208;7.518;2024-03-06T03:25:57;2.10;;;1.80;;
38940;SDS011;43236;47.208;7.518;2024-03-06T03:28:45;2.95;;;2.10;;
38940;SDS011;43236;47.208;7.518;2024-03-06T03:31:32;2.60;;;2.00;;
38940;SDS011;43236;47.208;7.518;2024-03-06T03:34:22;1.92;;;1.73;;
38940;SDS011;43236;47.208;7.518;2024-03-06T03:37:09;2.22;;;2.03;;
38940;SDS011;43236;47.208;7.518;2024-03-06T03:39:56;1.92;;;1.75;;
38940;SDS011;43236;47.208;7.518;2024-03-06T03:42:43;1.65;;;1.55;;
38940;SDS011;43236;47.208;7.518;2024-03-06T03:45:31;3.65;;;2.58;;
38940;SDS011;43236;47.208;7.518;2024-03-06T03:48:19;2.35;;;1.77;;
38940;SDS011;43236;47.208;7.518;2024-03-06T03:51:06;3.05;;;1.55;;
38940;SDS011;43236;47.208;7.518;2024-03-06T03:53:53;3.08;;;1.67;;
38940;SDS011;43236;47.208;7.518;2024-03-06T03:56:40;3.70;;;2.10;;
38940;SDS011;43236;47.208;7.518;2024-03-06T03:59:27;1.90;;;1.40;;
38940;SDS011;43236;47.208;7.518;2024-03-06T04:02:16;2.58;;;1.83;;
38940;SDS011;43236;47.208;7.518;2024-03-06T04:05:03;2.88;;;1.92;;
38940;SDS011;43236;47.208;7.518;2024-03-06T04:07:50;2.55;;;2.00;;
38940;SDS011;43236;47.208;7.518;2024-03-06T04:10:37;2.67;;;2.25;;
38940;SDS011;43236;47.208;7.518;2024-03-06T04:13:25;3.35;;;1.70;;
38940;SDS011;43236;47.208;7.518;2024-03-06T04:16:15;2.33;;;1.67;;
38940;SDS011;43236;47.208;7.518;2024-03-06T04:19:04;2.15;;;1.60;;
38940;SDS011;43236;47.208;7.518;2024-03-06T04:21:51;2.30;;;1.50;;
38940;SDS011;43236;47.208;7.518;2024-03-06T04:24:40;2.92;;;2.28;;
38940;SDS011;43236;47.208;7.518;2024-03-06T04:27:27;1.55;;;1.42;;
38940;SDS011;43236;47.208;7.518;2024-03-06T04:30:15;2.15;;;1.73;;
38940;SDS011;43236;47.208;7.518;2024-03-06T04:33:02;2.15;;;1.95;;
38940;SDS011;43236;47.208;7.518;2024-03-06T04:35:51;2.63;;;2.42;;
38940;SDS011;43236;47.208;7.518;2024-03-06T04:38:38;1.85;;;1.65;;
38940;SDS011;43236;47.208;7.518;2024-03-06T04:41:25;2.28;;;1.77;;
38940;SDS011;43236;47.208;7.518;2024-03-06T04:44:12;2.25;;;1.42;;
38940;SDS011;43236;47.208;7.518;2024-03-06T04:47:00;1.58;;;1.48;;
38940;SDS011;43236;47.208;7.518;2024-03-06T04:49:47;1.83;;;1.52;;
38940;SDS011;43236;47.208;7.518;2024-03-06T04:52:36;3.30;;;1.70;;
38940;SDS011;43236;47.208;7.518;2024-03-06T04:55:23;2.42;;;1.83;;
38940;SDS011;43236;47.208;7.518;2024-03-06T04:58:11;2.47;;;2.28;;
38940;SDS011;43236;47.208;7.518;2024-03-06T05:00:58;2.70;;;2.20;;
38940;SDS011;43236;47.208;7.518;2024-03-06T05:03:45;3.45;;;1.77;;
38940;SDS011;43236;47.208;7.518;2024-03-06T05:06:32;2.38;;;1.80;;
38940;SDS011;43236;47.208;7.518;2024-03-06T05:09:20;4.50;;;2.10;;
38940;SDS011;43236;47.208;7.518;2024-03-06T05:12:07;2.35;;;1.75;;
38940;SDS011;43236;47.208;7.518;2024-03-06T05:14:55;1.88;;;1.65;;
38940;SDS011;43236;47.208;7.518;2024-03-06T05:17:42;1.83;;;1.55;;
38940;SDS011;43236;47.208;7.518;2024-03-06T05:20:29;4.15;;;2.25;;
38940;SDS011;43236;47.208;7.518;2024-03-06T05:23:17;5.57;;;2.28;;
38940;SDS011;43236;47.208;7.518;2024-03-06T05:26:05;2.28;;;2.08;;
38940;SDS011;43236;47.208;7.518;2024-03-06T05:28:52;2.88;;;2.58;;
38940;SDS011;43236;47.208;7.518;2024-03-06T05:31:39;4.35;;;2.05;;
38940;SDS011;43236;47.208;7.518;2024-03-06T05:34:26;2.33;;;1.65;;
38940;SDS011;43236;47.208;7.518;2024-03-06T05:37:13;2.10;;;1.90;;
38940;SDS011;43236;47.208;7.518;2024-03-06T05:40:00;3.42;;;2.22;;
38940;SDS011;43236;47.208;7.518;2024-03-06T05:42:51;2.03;;;1.83;;
38940;SDS011;43236;47.208;7.518;2024-03-06T05:45:38;2.67;;;2.35;;
38940;SDS011;43236;47.208;7.518;2024-03-06T05:48:25;2.03;;;1.83;;
38940;SDS011;43236;47.208;7.518;2024-03-06T05:51:12;5.57;;;2.13;;
38940;SDS011;43236;47.208;7.518;2024-03-06T05:53:59;2.40;;;2.20;;
38940;SDS011;43236;47.208;7.518;2024-03-06T05:56:47;2.30;;;2.10;;
38940;SDS011;43236;47.208;7.518;2024-03-06T05:59:35;4.47;;;1.90;;
38940;SDS011;43236;47.208;7.518;2024-03-06T06:02:23;2.35;;;1.85;;
38940;SDS011;43236;47.208;7.518;2024-03-06T06:05:10;1.90;;;1.80;;
38940;SDS011;43236;47.208;7.518;2024-03-06T06:07:57;2.35;;;2.13;;
38940;SDS011;43236;47.208;7.518;2024-03-06T06:10:44;2.95;;;1.80;;
38940;SDS011;43236;47.208;7.518;2024-03-06T06:13:31;1.77;;;1.60;;
38940;SDS011;43236;47.208;7.518;2024-03-06T06:16:19;1.50;;;1.40;;
38940;SDS011;43236;47.208;7.518;2024-03-06T06:19:06;3.50;;;2.42;;
38940;SDS011;43236;47.208;7.518;2024-03-06T06:21:54;2.88;;;1.80;;
38940;SDS011;43236;47.208;7.518;2024-03-06T06:24:41;3.25;;;2.22;;
38940;SDS011;43236;47.208;7.518;2024-03-06T06:27:28;4.20;;;2.92;;
38940;SDS011;43236;47.208;7.518;2024-03-06T06:30:15;2.25;;;2.10;;
38940;SDS011;43236;47.208;7.518;2024-03-06T06:33:04;1.90;;;1.75;;
38940;SDS011;43236;47.208;7.518;2024-03-06T06:35:52;2.15;;;1.95;;
38940;SDS011;43236;47.208;7.518;2024-03-06T06:38:39;3.22;;;2.38;;
38940;SDS011;43236;47.208;7.518;2024-03-06T06:41:26;2.10;;;1.90;;
38940;SDS011;43236;47.208;7.518;2024-03-06T06:44:13;2.70;;;2.28;;
38940;SDS011;43236;47.208;7.518;2024-03-06T06:47:00;2.10;;;1.85;;
38940;SDS011;43236;47.208;7.518;2024-03-06T06:49:48;2.65;;;1.98;;
38940;SDS011;43236;47.208;7.518;2024-03-06T06:52:36;2.35;;;1.90;;
38940;SDS011;43236;47.208;7.518;2024-03-06T06:55:23;2.85;;;2.25;;
38940;SDS011;43236;47.208;7.518;2024-03-06T06:58:10;2.45;;;2.25;;
38940;SDS011;43236;47.208;7.518;2024-03-06T07:00:57;2.50;;;2.30;;
38940;SDS011;43236;47.208;7.518;2024-03-06T07:03:45;2.85;;;2.35;;
38940;SDS011;43236;47.208;7.518;2024-03-06T07:06:34;3.15;;;2.33;;
38940;SDS011;43236;47.208;7.518;2024-03-06T07:09:21;2.38;;;2.17;;
38940;SDS011;43236;47.208;7.518;2024-03-06T07:12:08;2.17;;;1.77;;
38940;SDS011;43236;47.208;7.518;2024-03-06T07:14:55;2.13;;;1.83;;
38940;SDS011;43236;47.208;7.518;2024-03-06T07:17:42;2.35;;;2.15;;
38940;SDS011;43236;47.208;7.518;2024-03-06T07:20:29;2.08;;;1.98;;
38940;SDS011;43236;47.208;7.518;2024-03-06T07:23:18;2.35;;;2.15;;
38940;SDS011;43236;47.208;7.518;2024-03-06T07:26:05;4.13;;;2.58;;
38940;SDS011;43236;47.208;7.518;2024-03-06T07:28:52;2.83;;;2.20;;
38940;SDS011;43236;47.208;7.518;2024-03-06T07:31:39;2.67;;;2.47;;
38940;SDS011;43236;47.208;7.518;2024-03-06T07:34:27;2.85;;;2.15;;
38940;SDS011;43236;47.208;7.518;2024-03-06T07:37:14;3.65;;;2.45;;
38940;SDS011;43236;47.208;7.518;2024-03-06T07:40:02;3.00;;;1.98;;
38940;SDS011;43236;47.208;7.518;2024-03-06T07:42:50;3.75;;;2.40;;
38940;SDS011;43236;47.208;7.518;2024-03-06T07:45:37;4.35;;;2.78;;
38940;SDS011;43236;47.208;7.518;2024-03-06T07:48:24;5.03;;;2.83;;
38940;SDS011;43236;47.208;7.518;2024-03-06T07:51:12;6.07;;;2.95;;
38940;SDS011;43236;47.208;7.518;2024-03-06T07:53:59;5.72;;;2.80;;
38940;SDS011;43236;47.208;7.518;2024-03-06T07:56:48;6.00;;;3.28;;
38940;SDS011;43236;47.208;7.518;2024-03-06T07:59:35;2.83;;;2.50;;
38940;SDS011;43236;47.208;7.518;2024-03-06T08:02:22;4.25;;;3.70;;
38940;SDS011;43236;47.208;7.518;2024-03-06T08:05:09;2.60;;;2.35;;
38940;SDS011;43236;47.208;7.518;2024-03-06T08:07:57;2.70;;;2.35;;
38940;SDS011;43236;47.208;7.518;2024-03-06T08:10:44;4.35;;;2.90;;
38940;SDS011;43236;47.208;7.518;2024-03-06T08:13:33;3.28;;;2.67;;
38940;SDS011;43236;47.208;7.518;2024-03-06T08:16:20;3.55;;;2.55;;
38940;SDS011;43236;47.208;7.518;2024-03-06T08:19:07;3.63;;;2.42;;
38940;SDS011;43236;47.208;7.518;2024-03-06T08:21:55;3.38;;;2.80;;
38940;SDS011;43236;47.208;7.518;2024-03-06T08:24:42;3.58;;;3.08;;
38940;SDS011;43236;47.208;7.518;2024-03-06T08:27:29;3.60;;;3.10;;
38940;SDS011;43236;47.208;7.518;2024-03-06T08:30:17;3.00;;;2.65;;
38940;SDS011;43236;47.208;7.518;2024-03-06T08:33:04;2.10;;;1.90;;
38940;SDS011;43236;47.208;7.518;2024-03-06T08:35:51;3.10;;;2.28;;
38940;SDS011;43236;47.208;7.518;2024-03-06T08:38:38;3.65;;;3.20;;
38940;SDS011;43236;47.208;7.518;2024-03-06T08:41:26;4.20;;;2.63;;
38940;SDS011;43236;47.208;7.518;2024-03-06T08:44:13;2.08;;;1.88;;
38940;SDS011;43236;47.208;7.518;2024-03-06T08:47:01;3.25;;;2.42;;
38940;SDS011;43236;47.208;7.518;2024-03-06T08:49:48;2.63;;;2.28;;
38940;SDS011;43236;47.208;7.518;2024-03-06T08:52:36;3.05;;;2.28;;
38940;SDS011;43236;47.208;7.518;2024-03-06T08:55:23;2.00;;;1.80;;
38940;SDS011;43236;47.208;7.518;2024-03-06T08:58:10;2.28;;;1.73;;
38940;SDS011;43236;47.208;7.518;2024-03-06T09:00:59;3.90;;;2.60;;
38940;SDS011;43236;47.208;7.518;2024-03-06T09:03:48;3.35;;;2.88;;
38940;SDS011;43236;47.208;7.518;2024-03-06T09:06:34;3.67;;;3.03;;
38940;SDS011;43236;47.208;7.518;2024-03-06T09:09:22;3.13;;;2.30;;
38940;SDS011;43236;47.208;7.518;2024-03-06T09:12:09;2.72;;;2.42;;
38940;SDS011;43236;47.208;7.518;2024-03-06T09:14:56;2.70;;;2.20;;
38940;SDS011;43236;47.208;7.518;2024-03-06T09:17:46;2.53;;;2.13;;
38940;SDS011;43236;47.208;7.518;2024-03-06T09:20:34;2.63;;;2.05;;
38940;SDS011;43236;47.208;7.518;2024-03-06T09:23:21;3.13;;;2.05;;
38940;SDS011;43236;47.208;7.518;2024-03-06T09:26:09;3.72;;;2.42;;
38940;SDS011;43236;47.208;7.518;2024-03-06T09:28:56;2.40;;;2.20;;
38940;SDS011;43236;47.208;7.518;2024-03-06T09:31:43;5.53;;;2.13;;
38940;SDS011;43236;47.208;7.518;2024-03-06T09:34:30;4.55;;;2.20;;
38940;SDS011;43236;47.208;7.518;2024-03-06T09:37:18;2.45;;;1.90;;
38940;SDS011;43236;47.208;7.518;2024-03-06T09:40:06;2.90;;;1.90;;
38940;SDS011;43236;47.208;7.518;2024-03-06T09:42:55;2.13;;;1.67;;
38940;SDS011;43236;47.208;7.518;2024-03-06T09:45:42;2.95;;;1.65;;
38940;SDS011;43236;47.208;7.518;2024-03-06T09:48:31;1.85;;;1.65;;
38940;SDS011;43236;47.208;7.518;2024-03-06T09:51:19;5.50;;;1.70;;
38940;SDS011;43236;47.208;7.518;2024-03-06T09:54:09;2.35;;;2.15;;
38940;SDS011;43236;47.208;7.518;2024-03-06T09:56:58;2.40;;;1.63;;
38940;SDS011;43236;47.208;7.518;2024-03-06T09:59:45;1.73;;;1.27;;
38940;SDS011;43236;47.208;7.518;2024-03-06T10:02:34;2.40;;;1.50;;
38940;SDS011;43236;47.208;7.518;2024-03-06T10:05:24;2.22;;;1.67;;
38940;SDS011;43236;47.208;7.518;2024-03-06T10:08:12;2.20;;;1.50;;
38940;SDS011;43236;47.208;7.518;2024-03-06T10:11:03;3.45;;;1.55;;
38940;SDS011;43236;47.208;7.518;2024-03-06T10:13:52;3.13;;;1.50;;
38940;SDS011;43236;47.208;7.518;2024-03-06T10:16:51;1.92;;;1.60;;
38940;SDS011;43236;47.208;7.518;2024-03-06T10:19:38;1.27;;;1.17;;
38940;SDS011;43236;47.208;7.518;2024-03-06T10:22:25;2.53;;;1.23;;
38940;SDS011;43236;47.208;7.518;2024-03-06T10:25:13;1.95;;;1.45;;
38940;SDS011;43236;47.208;7.518;2024-03-06T10:28:05;1.30;;;1.20;;
38940;SDS011;43236;47.208;7.518;2024-03-06T10:31:02;1.20;;;1.10;;
38940;SDS011;43236;47.208;7.518;2024-03-06T10:33:50;1.88;;;1.48;;
38940;SDS011;43236;47.208;7.518;2024-03-06T10:36:39;2.03;;;1.20;;
38940;SDS011;43236;47.208;7.518;2024-03-06T10:39:27;1.45;;;1.05;;
38940;SDS011;43236;47.208;7.518;2024-03-06T10:42:16;1.23;;;1.00;;
38940;SDS011;43236;47.208;7.518;2024-03-06T10:45:05;1.00;;;0.90;;
38940;SDS011;43236;47.208;7.518;2024-03-06T10:47:54;1.35;;;1.10;;
38940;SDS011;43236;47.208;7.518;2024-03-06T10:50:42;0.98;;;0.82;;
38940;SDS011;43236;47.208;7.518;2024-03-06T10:53:30;2.55;;;0.90;;
38940;SDS011;43236;47.208;7.518;2024-03-06T10:56:18;1.00;;;0.80;;
38940;SDS011;43236;47.208;7.518;2024-03-06T10:59:08;4.78;;;2.28;;
38940;SDS011;43236;47.208;7.518;2024-03-06T11:01:59;1.02;;;0.93;;
38940;SDS011;43236;47.208;7.518;2024-03-06T11:04:46;1.05;;;0.80;;
38940;SDS011;43236;47.208;7.518;2024-03-06T11:07:34;1.02;;;1.00;;
38940;SDS011;43236;47.208;7.518;2024-03-06T11:10:31;1.60;;;0.80;;
38940;SDS011;43236;47.208;7.518;2024-03-06T11:13:22;1.27;;;1.08;;
38940;SDS011;43236;47.208;7.518;2024-03-06T11:16:11;1.55;;;1.45;;
38940;SDS011;43236;47.208;7.518;2024-03-06T11:19:09;1.13;;;1.05;;
38940;SDS011;43236;47.208;7.518;2024-03-06T11:21:56;0.70;;;0.70;;
38940;SDS011;43236;47.208;7.518;2024-03-06T11:24:43;1.25;;;1.08;;
38940;SDS011;43236;47.208;7.518;2024-03-06T11:27:30;1.08;;;1.08;;
38940;SDS011;43236;47.208;7.518;2024-03-06T11:30:19;0.98;;;0.88;;
38940;SDS011;43236;47.208;7.518;2024-03-06T11:33:06;0.73;;;0.73;;
38940;SDS011;43236;47.208;7.518;2024-03-06T11:39:04;0.98;;;0.80;;
38940;SDS011;43236;47.208;7.518;2024-03-06T11:41:52;2.22;;;1.17;;
38940;SDS011;43236;47.208;7.518;2024-03-06T11:44:52;1.40;;;0.70;;
38940;SDS011;43236;47.208;7.518;2024-03-06T11:47:55;1.27;;;1.05;;
38940;SDS011;43236;47.208;7.518;2024-03-06T11:50:43;1.27;;;0.98;;
38940;SDS011;43236;47.208;7.518;2024-03-06T11:53:33;0.90;;;0.90;;
38940;SDS011;43236;47.208;7.518;2024-03-06T11:56:21;1.75;;;0.93;;
38940;SDS011;43236;47.208;7.518;2024-03-06T11:59:08;0.80;;;0.68;;
38940;SDS011;43236;47.208;7.518;2024-03-06T12:01:57;1.55;;;0.70;;
38940;SDS011;43236;47.208;7.518;2024-03-06T12:04:47;1.92;;;1.10;;
38940;SDS011;43236;47.208;7.518;2024-03-06T12:07:44;0.80;;;0.80;;
38940;SDS011;43236;47.208;7.518;2024-03-06T12:10:36;0.82;;;0.80;;
38940;SDS011;43236;47.208;7.518;2024-03-06T12:13:23;0.65;;;0.65;;
38940;SDS011;43236;47.208;7.518;2024-03-06T12:16:11;1.40;;;1.30;;
38940;SDS011;43236;47.208;7.518;2024-03-06T12:18:58;0.95;;;0.88;;
38940;SDS011;43236;47.208;7.518;2024-03-06T12:21:47;1.17;;;1.05;;
38940;SDS011;43236;47.208;7.518;2024-03-06T12:24:34;1.50;;;1.40;;
38940;SDS011;43236;47.208;7.518;2024-03-06T12:27:23;1.52;;;1.00;;
38940;SDS011;43236;47.208;7.518;2024-03-06T12:30:10;0.98;;;0.88;;
38940;SDS011;43236;47.208;7.518;2024-03-06T12:32:58;1.48;;;1.25;;
38940;SDS011;43236;47.208;7.518;2024-03-06T12:35:59;0.85;;;0.85;;
38940;SDS011;43236;47.208;7.518;2024-03-06T12:38:53;1.42;;;1.10;;
38940;SDS011;43236;47.208;7.518;2024-03-06T12:41:40;1.60;;;1.00;;
38940;SDS011;43236;47.208;7.518;2024-03-06T12:44:29;1.42;;;1.33;;
38940;SDS011;43236;47.208;7.518;2024-03-06T12:47:16;1.30;;;0.68;;
38940;SDS011;43236;47.208;7.518;2024-03-06T12:50:03;1.42;;;0.82;;
38940;SDS011;43236;47.208;7.518;2024-03-06T12:52:53;1.48;;;1.10;;
38940;SDS011;43236;47.208;7.518;2024-03-06T12:55:40;2.25;;;1.60;;
38940;SDS011;43236;47.208;7.518;2024-03-06T12:58:28;1.30;;;1.20;;
38940;SDS011;43236;47.208;7.518;2024-03-06T13:01:18;1.33;;;1.23;;
38940;SDS011;43236;47.208;7.518;2024-03-06T13:04:05;1.30;;;1.08;;
38940;SDS011;43236;47.208;7.518;2024-03-06T13:06:53;0.80;;;0.80;;
38940;SDS011;43236;47.208;7.518;2024-03-06T13:09:40;0.63;;;0.63;;
38940;SDS011;43236;47.208;7.518;2024-03-06T13:12:27;1.35;;;1.02;;
38940;SDS011;43236;47.208;7.518;2024-03-06T13:15:14;1.23;;;1.10;;
38940;SDS011;43236;47.208;7.518;2024-03-06T13:18:03;1.40;;;1.17;;
38940;SDS011;43236;47.208;7.518;2024-03-06T13:20:50;1.33;;;0.90;;
38940;SDS011;43236;47.208;7.518;2024-03-06T13:23:38;0.82;;;0.82;;
38940;SDS011;43236;47.208;7.518;2024-03-06T13:26:25;1.13;;;1.02;;
38940;SDS011;43236;47.208;7.518;2024-03-06T13:29:12;1.83;;;1.73;;
38940;SDS011;43236;47.208;7.518;2024-03-06T13:31:59;5.13;;;1.45;;
38940;SDS011;43236;47.208;7.518;2024-03-06T13:34:47;1.70;;;1.40;;
38940;SDS011;43236;47.208;7.518;2024-03-06T13:37:35;1.17;;;1.08;;
38940;SDS011;43236;47.208;7.518;2024-03-06T13:40:22;1.92;;;1.42;;
38940;SDS011;43236;47.208;7.518;2024-03-06T13:43:11;1.00;;;0.90;;
38940;SDS011;43236;47.208;7.518;2024-03-06T13:45:58;1.65;;;1.20;;
38940;SDS011;43236;47.208;7.518;2024-03-06T13:48:45;1.33;;;1.23;;
38940;SDS011;43236;47.208;7.518;2024-03-06T13:51:33;1.17;;;1.02;;
38940;SDS011;43236;47.208;7.518;2024-03-06T13:54:20;0.77;;;0.77;;
38940;SDS011;43236;47.208;7.518;2024-03-06T13:57:07;2.63;;;1.20;;
38940;SDS011;43236;47.208;7.518;2024-03-06T13:59:57;3.25;;;1.55;;
38940;SDS011;43236;47.208;7.518;2024-03-06T14:02:44;1.88;;;1.20;;
38940;SDS011;43236;47.208;7.518;2024-03-06T14:05:32;2.75;;;1.50;;
38940;SDS011;43236;47.208;7.518;2024-03-06T14:08:20;1.92;;;1.30;;
38940;SDS011;43236;47.208;7.518;2024-03-06T14:11:07;2.47;;;1.50;;
38940;SDS011;43236;47.208;7.518;2024-03-06T14:13:54;2.38;;;1.48;;
38940;SDS011;43236;47.208;7.518;2024-03-06T14:16:42;2.40;;;1.70;;
38940;SDS011;43236;47.208;7.518;2024-03-06T14:19:29;2.13;;;1.75;;
38940;SDS011;43236;47.208;7.518;2024-03-06T14:22:16;2.10;;;1.90;;
38940;SDS011;43236;47.208;7.518;2024-03-06T14:25:04;1.20;;;1.00;;
38940;SDS011;43236;47.208;7.518;2024-03-06T14:27:53;3.00;;;1.88;;
38940;SDS011;43236;47.208;7.518;2024-03-06T14:30:40;1.63;;;1.52;;
38940;SDS011;43236;47.208;7.518;2024-03-06T14:33:27;6.50;;;2.28;;
38940;SDS011;43236;47.208;7.518;2024-03-06T14:36:14;2.92;;;2.08;;
38940;SDS011;43236;47.208;7.518;2024-03-06T14:39:01;2.58;;;2.22;;
38940;SDS011;43236;47.208;7.518;2024-03-06T14:41:50;2.15;;;1.95;;
38940;SDS011;43236;47.208;7.518;2024-03-06T14:44:37;3.30;;;2.35;;
38940;SDS011;43236;47.208;7.518;2024-03-06T14:47:24;2.97;;;1.92;;
38940;SDS011;43236;47.208;7.518;2024-03-06T14:50:11;2.08;;;1.98;;
38940;SDS011;43236;47.208;7.518;2024-03-06T14:52:58;2.45;;;1.58;;
38940;SDS011;43236;47.208;7.518;2024-03-06T14:55:45;1.88;;;1.73;;
38940;SDS011;43236;47.208;7.518;2024-03-06T14:58:34;3.22;;;1.65;;
38940;SDS011;43236;47.208;7.518;2024-03-06T15:01:21;1.77;;;1.60;;
38940;SDS011;43236;47.208;7.518;2024-03-06T15:04:09;3.50;;;2.03;;
38940;SDS011;43236;47.208;7.518;2024-03-06T15:06:58;4.82;;;2.13;;
38940;SDS011;43236;47.208;7.518;2024-03-06T15:09:45;1.65;;;1.55;;
38940;SDS011;43236;47.208;7.518;2024-03-06T15:12:32;2.28;;;2.08;;
38940;SDS011;43236;47.208;7.518;2024-03-06T15:15:20;2.40;;;1.75;;
38940;SDS011;43236;47.208;7.518;2024-03-06T15:18:07;2.25;;;2.05;;
38940;SDS011;43236;47.208;7.518;2024-03-06T15:20:55;2.60;;;2.13;;
38940;SDS011;43236;47.208;7.518;2024-03-06T15:23:42;2.55;;;1.83;;
38940;SDS011;43236;47.208;7.518;2024-03-06T15:26:29;3.10;;;1.90;;
38940;SDS011;43236;47.208;7.518;2024-03-06T15:29:16;3.47;;;1.70;;
38940;SDS011;43236;47.208;7.518;2024-03-06T15:32:04;2.10;;;1.65;;
38940;SDS011;43236;47.208;7.518;2024-03-06T15:34:51;2.50;;;1.80;;
38940;SDS011;43236;47.208;7.518;2024-03-06T15:37:41;2.63;;;1.90;;
38940;SDS011;43236;47.208;7.518;2024-03-06T15:40:29;2.63;;;1.65;;
38940;SDS011;43236;47.208;7.518;2024-03-06T15:43:16;1.50;;;1.40;;
38940;SDS011;43236;47.208;7.518;2024-03-06T15:46:03;4.88;;;2.03;;
38940;SDS011;43236;47.208;7.518;2024-03-06T15:48:52;1.92;;;1.40;;
38940;SDS011;43236;47.208;7.518;2024-03-06T15:51:39;2.40;;;1.90;;
38940;SDS011;43236;47.208;7.518;2024-03-06T15:54:26;2.45;;;1.75;;
38940;SDS011;43236;47.208;7.518;2024-03-06T15:57:13;2.53;;;1.73;;
38940;SDS011;43236;47.208;7.518;2024-03-06T16:00:04;2.97;;;1.73;;
38940;SDS011;43236;47.208;7.518;2024-03-06T16:02:54;1.90;;;1.67;;
38940;SDS011;43236;47.208;7.518;2024-03-06T16:05:44;1.52;;;1.30;;
38940;SDS011;43236;47.208;7.518;2024-03-06T16:08:31;3.28;;;1.60;;
38940;SDS011;43236;47.208;7.518;2024-03-06T16:11:18;3.78;;;1.95;;
38940;SDS011;43236;47.208;7.518;2024-03-06T16:14:05;2.10;;;1.90;;
38940;SDS011;43236;47.208;7.518;2024-03-06T16:16:52;1.63;;;1.48;;
38940;SDS011;43236;47.208;7.518;2024-03-06T16:19:39;1.88;;;1.65;;
38940;SDS011;43236;47.208;7.518;2024-03-06T16:22:28;4.70;;;1.92;;
38940;SDS011;43236;47.208;7.518;2024-03-06T16:25:15;2.08;;;1.60;;
38940;SDS011;43236;47.208;7.518;2024-03-06T16:28:02;3.20;;;1.77;;
38940;SDS011;43236;47.208;7.518;2024-03-06T16:30:50;1.80;;;1.70;;
38940;SDS011;43236;47.208;7.518;2024-03-06T16:33:39;3.47;;;2.58;;
38940;SDS011;43236;47.208;7.518;2024-03-06T16:36:26;2.65;;;1.70;;
38940;SDS011;43236;47.208;7.518;2024-03-06T16:39:15;4.90;;;2.22;;
38940;SDS011;43236;47.208;7.518;2024-03-06T16:42:05;1.70;;;1.60;;
38940;SDS011;43236;47.208;7.518;2024-03-06T16:44:52;4.18;;;1.85;;
38940;SDS011;43236;47.208;7.518;2024-03-06T16:47:39;1.85;;;1.48;;
38940;SDS011;43236;47.208;7.518;2024-03-06T16:50:26;2.70;;;1.90;;
38940;SDS011;43236;47.208;7.518;2024-03-06T16:53:14;1.98;;;1.67;;
38940;SDS011;43236;47.208;7.518;2024-03-06T16:56:03;2.13;;;1.92;;